Terminal Aerodrome Forecast
Issued by NWS Sioux Falls, SD

Home | Current Version | Previous Version | Text Only | Print | Product List | Glossary On
Versions: 1 2 3 4 5 6 7 8 9 10 11 12 13
000
FTUS43 KFSD 272323
TAFFSD
TAF
KFSD 272323Z 2800/2824 VRB04KT P6SM SCT200
     FM281300 36004KT P6SM BKN080
     FM281900 35008KT P6SM OVC040=

USA.gov is the U.S. government's official web portal to all federal, state and local government web resources and services.